Weather at Aktau Airport

Public forecast

Using degrees Celsius for public forecast. Weather courtesy of forecast.io.

Current aviation weather report (METAR) for Aktau Airport

Report is more than 6 hours old.

2022/11/14 15:30 (retrieved 2 years ago)

UATE 141530Z 31010G15MPS 9999 BKN036CB 08/00 Q1016 NOSIG RMK QFE760/1014

Aviation forecast (TAF) for Aktau Airport

Forecast is more than 12 hours old.

2023/02/22 18:22 (retrieved 1 year ago)

TAF UATE 221701Z 2218/2318 30009G15MPS 9999 SCT011 BKN033CB TX03/2309Z TN01/2303Z TEMPO 2218/2304 3100 -SHRASN BR BKN005 BKN015CB BECMG 2316/2318 35006G12MPS